Time;durP1;ratioP1;P1;durP2;ratioP2;P2;SDS_P1;SDS_P2;PMS_P1;PMS_P2;Temp;Humidity;BMP_temperature;BMP_pressure;BME280_temperature;BME280_humidity;BME280_pressure;Samples;Min_cycle;Max_cycle;Signal;HPM_P1;HPM_P2
2022/12/24 00:01:46;;;;;;;;;;;20.50;68.00;;;;;;1591483;73;1167;-77
2022/12/24 00:03:48;;;;;;;;;;;20.50;68.10;;;;;;1586480;73;713;-79
2022/12/24 00:05:50;;;;;;;;;;;20.50;68.40;;;;;;1587654;73;720;-79
2022/12/24 00:07:52;;;;;;;;;;;20.60;68.20;;;;;;1586595;73;720;-80
2022/12/24 00:09:54;;;;;;;;;;;20.60;68.30;;;;;;1588811;74;744;-79
2022/12/24 00:11:56;;;;;;;;;;;20.60;68.10;;;;;;1582361;73;1134;-78
2022/12/24 00:13:58;;;;;;;;;;;20.60;68.20;;;;;;1590497;73;679;-79
2022/12/24 00:16:00;;;;;;;;;;;20.70;68.20;;;;;;1579386;73;683;-79
2022/12/24 00:18:01;;;;;;;;;;;20.70;68.70;;;;;;1589610;73;1669;-79
2022/12/24 00:20:03;;;;;;;;;;;20.70;68.40;;;;;;1583789;73;721;-81
2022/12/24 00:22:05;;;;;;;;;;;20.60;68.10;;;;;;1588178;73;1093;-81
2022/12/24 00:24:07;;;;;;;;;;;20.60;67.90;;;;;;1587997;73;683;-81
2022/12/24 00:26:09;;;;;;;;;;;20.50;67.80;;;;;;1584387;73;1912;-81
2022/12/24 00:28:11;;;;;;;;;;;20.50;67.70;;;;;;1583004;73;779;-81
2022/12/24 00:30:13;;;;;;;;;;;20.40;67.70;;;;;;1585731;73;594;-82
2022/12/24 00:32:15;;;;;;;;;;;20.40;67.70;;;;;;1591322;73;651;-79
2022/12/24 00:34:17;;;;;;;;;;;20.40;67.70;;;;;;1576736;74;708;-81
2022/12/24 00:36:19;;;;;;;;;;;20.50;68.40;;;;;;1580908;73;784;-76
2022/12/24 00:38:21;;;;;;;;;;;20.40;68.20;;;;;;1575921;73;695;-76
2022/12/24 00:40:22;;;;;;;;;;;20.40;68.10;;;;;;1571716;73;1206;-76
2022/12/24 00:42:24;;;;;;;;;;;20.40;68.00;;;;;;1578487;73;699;-76
2022/12/24 00:44:26;;;;;;;;;;;20.40;67.90;;;;;;1580969;74;711;-77
2022/12/24 00:46:29;;;;;;;;;;;20.40;67.80;;;;;;1582009;73;1922;-78
2022/12/24 00:48:31;;;;;;;;;;;20.40;68.00;;;;;;1581009;74;663;-78
2022/12/24 00:50:32;;;;;;;;;;;20.50;67.90;;;;;;1585065;73;1135;-79
2022/12/24 00:52:34;;;;;;;;;;;20.40;67.70;;;;;;1585407;74;721;-78
2022/12/24 00:54:36;;;;;;;;;;;20.40;67.60;;;;;;1583412;73;788;-78
2022/12/24 00:56:38;;;;;;;;;;;20.40;67.60;;;;;;1580469;73;738;-79
2022/12/24 00:58:40;;;;;;;;;;;20.50;67.60;;;;;;1576648;73;757;-78
2022/12/24 01:00:42;;;;;;;;;;;20.40;67.50;;;;;;1587461;73;1170;-78
2022/12/24 01:02:44;;;;;;;;;;;20.40;67.50;;;;;;1578129;74;805;-79
2022/12/24 01:07:06;;;;;;;;;;;20.40;67.40;;;;;;1579405;73;1898;-78
2022/12/24 01:09:07;;;;;;;;;;;20.40;67.40;;;;;;1588181;74;760;-76
2022/12/24 01:11:09;;;;;;;;;;;20.50;67.40;;;;;;1582010;73;1169;-79
2022/12/24 01:13:11;;;;;;;;;;;20.50;67.40;;;;;;1575648;73;1567;-78
2022/12/24 01:15:14;;;;;;;;;;;20.40;67.40;;;;;;1586059;73;707;-79
2022/12/24 01:17:16;;;;;;;;;;;20.40;67.30;;;;;;1589611;73;686;-78
2022/12/24 01:19:17;;;;;;;;;;;20.40;67.30;;;;;;1590864;74;727;-78
2022/12/24 01:21:19;;;;;;;;;;;20.40;67.30;;;;;;1575036;73;1123;-78
2022/12/24 01:23:21;;;;;;;;;;;20.40;67.30;;;;;;1578816;73;892;-79
2022/12/24 01:25:23;;;;;;;;;;;20.40;67.30;;;;;;1577594;73;785;-76
2022/12/24 01:27:25;;;;;;;;;;;20.40;68.60;;;;;;1576270;74;1923;-77
2022/12/24 01:29:27;;;;;;;;;;;20.40;67.80;;;;;;1580574;73;763;-77
2022/12/24 01:31:29;;;;;;;;;;;20.40;67.60;;;;;;1578266;73;1130;-73
2022/12/24 01:33:31;;;;;;;;;;;20.40;67.60;;;;;;1580096;74;700;-79
2022/12/24 01:35:32;;;;;;;;;;;20.40;67.50;;;;;;1575779;73;715;-76
2022/12/24 01:37:34;;;;;;;;;;;20.40;67.50;;;;;;1573808;74;691;-76
2022/12/24 01:39:36;;;;;;;;;;;20.40;67.60;;;;;;1577701;73;690;-77
2022/12/24 01:43:58;;;;;;;;;;;20.40;67.60;;;;;;1577061;73;1673;-77
2022/12/24 01:46:05;;;;;;;;;;;20.30;67.60;;;;;;1585198;74;711;-76
2022/12/24 01:48:14;;;;;;;;;;;20.40;67.60;;;;;;1577483;74;1904;-77
2022/12/24 01:50:17;;;;;;;;;;;20.40;67.50;;;;;;1564726;74;1565;-78
2022/12/24 01:52:20;;;;;;;;;;;20.30;67.60;;;;;;1583066;73;820;-77
2022/12/24 01:54:27;;;;;;;;;;;20.40;67.60;;;;;;1578294;74;893;-76
2022/12/24 01:56:29;;;;;;;;;;;20.30;67.60;;;;;;1579370;74;1951;-77
2022/12/24 01:58:31;;;;;;;;;;;20.30;67.80;;;;;;1580968;73;740;-76
2022/12/24 02:00:33;;;;;;;;;;;20.30;67.70;;;;;;1544917;75;1179;-77
2022/12/24 02:02:35;;;;;;;;;;;20.30;67.80;;;;;;1578790;73;673;-77
2022/12/24 02:04:37;;;;;;;;;;;20.30;67.80;;;;;;1578897;74;888;-78
2022/12/24 02:06:39;;;;;;;;;;;20.30;67.80;;;;;;1577197;73;1942;-77
2022/12/24 02:08:41;;;;;;;;;;;20.30;67.70;;;;;;1580810;74;1558;-77
2022/12/24 02:10:44;;;;;;;;;;;20.30;67.80;;;;;;1583779;73;1185;-79
2022/12/24 02:12:46;;;;;;;;;;;20.30;67.80;;;;;;1579164;73;770;-77
2022/12/24 02:14:47;;;;;;;;;;;20.30;67.70;;;;;;1581831;74;766;-77
2022/12/24 02:17:00;;;;;;;;;;;20.30;67.80;;;;;;1586739;74;698;-77
2022/12/24 02:19:06;;;;;;;;;;;20.30;67.70;;;;;;1580216;74;754;-77
2022/12/24 02:21:19;;;;;;;;;;;20.30;67.60;;;;;;1558086;73;1108;-76
2022/12/24 02:23:22;;;;;;;;;;;20.30;67.60;;;;;;1579938;73;1057;-77
2022/12/24 02:25:35;;;;;;;;;;;20.30;67.60;;;;;;1585131;73;1047;-77
2022/12/24 02:27:38;;;;;;;;;;;20.30;67.70;;;;;;1577069;73;1932;-81
2022/12/24 02:29:58;;;;;;;;;;;20.30;67.60;;;;;;1576208;74;699;-76
2022/12/24 02:32:07;;;;;;;;;;;20.30;67.70;;;;;;1577257;73;1138;-77
2022/12/24 02:34:14;;;;;;;;;;;20.30;67.70;;;;;;1579609;73;1524;-77
2022/12/24 02:36:23;;;;;;;;;;;20.30;67.70;;;;;;1581714;73;969;-78
2022/12/24 02:38:29;;;;;;;;;;;20.30;67.60;;;;;;1583089;73;755;-77
2022/12/24 02:40:33;;;;;;;;;;;20.30;67.70;;;;;;1556104;73;1157;-77
2022/12/24 02:42:36;;;;;;;;;;;20.30;67.70;;;;;;1582886;73;791;-76
2022/12/24 02:44:39;;;;;;;;;;;20.30;67.80;;;;;;1577297;74;638;-78
2022/12/24 02:46:41;;;;;;;;;;;20.30;67.70;;;;;;1582268;74;671;-78
2022/12/24 02:48:43;;;;;;;;;;;20.30;67.70;;;;;;1577581;73;1933;-78
2022/12/24 02:51:02;;;;;;;;;;;20.30;67.70;;;;;;1575602;73;1150;-77
2022/12/24 02:53:05;;;;;;;;;;;20.30;67.70;;;;;;1581347;74;695;-77
2022/12/24 02:55:08;;;;;;;;;;;20.30;67.70;;;;;;1586632;73;695;-75
2022/12/24 02:57:27;;;;;;;;;;;20.30;67.80;;;;;;1580801;73;1134;-77
2022/12/24 02:59:30;;;;;;;;;;;20.30;67.70;;;;;;1579159;74;1156;-75
2022/12/24 03:01:40;;;;;;;;;;;20.30;68.00;;;;;;1580443;73;1194;-76
2022/12/24 03:03:43;;;;;;;;;;;20.30;68.00;;;;;;1580599;74;787;-77
2022/12/24 03:05:50;;;;;;;;;;;20.30;68.10;;;;;;1584968;73;1681;-77
2022/12/24 03:07:53;;;;;;;;;;;20.30;68.30;;;;;;1597603;73;1903;-77
2022/12/24 03:10:03;;;;;;;;;;;20.30;68.20;;;;;;1579525;73;1068;-77
2022/12/24 03:12:09;;;;;;;;;;;20.20;68.20;;;;;;1583331;74;1142;-75
2022/12/24 03:14:11;;;;;;;;;;;20.30;68.40;;;;;;1592460;73;717;-78
2022/12/24 03:16:17;;;;;;;;;;;20.30;68.40;;;;;;1583828;74;761;-80
2022/12/24 03:18:20;;;;;;;;;;;20.30;68.40;;;;;;1593100;73;688;-79
2022/12/24 03:20:23;;;;;;;;;;;20.30;68.30;;;;;;1589238;73;1166;-77
2022/12/24 03:22:25;;;;;;;;;;;20.30;68.10;;;;;;1586710;73;1435;-77
2022/12/24 03:24:27;;;;;;;;;;;20.30;68.10;;;;;;1590784;73;746;-78
2022/12/24 03:26:29;;;;;;;;;;;20.30;68.40;;;;;;1587226;74;670;-78
2022/12/24 03:28:31;;;;;;;;;;;20.30;68.50;;;;;;1582814;74;1941;-78
2022/12/24 03:30:33;;;;;;;;;;;20.20;68.30;;;;;;1584238;73;1153;-78
2022/12/24 03:32:35;;;;;;;;;;;20.30;68.30;;;;;;1581614;74;705;-78
2022/12/24 03:34:36;;;;;;;;;;;20.30;68.40;;;;;;1583263;74;672;-79
2022/12/24 03:36:38;;;;;;;;;;;20.30;68.40;;;;;;1588132;74;663;-77
2022/12/24 03:38:40;;;;;;;;;;;20.30;68.50;;;;;;1597508;73;850;-77
2022/12/24 03:40:42;;;;;;;;;;;20.20;68.20;;;;;;1586860;73;1089;-76
2022/12/24 03:42:44;;;;;;;;;;;20.30;68.40;;;;;;1593980;73;670;-76
2022/12/24 03:44:46;;;;;;;;;;;20.30;68.40;;;;;;1585806;73;768;-76
2022/12/24 03:46:48;;;;;;;;;;;20.20;68.30;;;;;;1583368;74;658;-76
2022/12/24 03:48:50;;;;;;;;;;;20.30;68.30;;;;;;1585979;74;1907;-78
2022/12/24 03:50:51;;;;;;;;;;;20.30;68.50;;;;;;1588469;73;1200;-77
2022/12/24 03:52:54;;;;;;;;;;;20.30;68.40;;;;;;1583680;73;690;-79
2022/12/24 03:54:56;;;;;;;;;;;20.30;68.30;;;;;;1590202;74;683;-77
2022/12/24 03:56:57;;;;;;;;;;;20.30;68.30;;;;;;1582371;73;653;-75
2022/12/24 03:58:59;;;;;;;;;;;20.30;68.20;;;;;;1581555;73;724;-79
2022/12/24 04:01:01;;;;;;;;;;;20.30;68.10;;;;;;1576390;72;2069;-71
2022/12/24 04:03:03;;;;;;;;;;;20.30;68.30;;;;;;1514803;77;1372;-72
2022/12/24 04:05:05;;;;;;;;;;;20.30;68.20;;;;;;1508837;77;693;-71
2022/12/24 04:07:07;;;;;;;;;;;20.30;68.90;;;;;;1516804;77;675;-78
2022/12/24 04:09:09;;;;;;;;;;;20.30;69.00;;;;;;1514764;77;1953;-74
2022/12/24 04:11:12;;;;;;;;;;;20.30;69.10;;;;;;1518165;75;1205;-75
2022/12/24 04:13:14;;;;;;;;;;;20.30;68.70;;;;;;1512866;77;684;-74
2022/12/24 04:15:16;;;;;;;;;;;20.30;68.50;;;;;;1507527;77;689;-74
2022/12/24 04:17:18;;;;;;;;;;;20.30;68.30;;;;;;1516558;77;657;-72
2022/12/24 04:19:20;;;;;;;;;;;20.30;68.20;;;;;;1509495;77;693;-73
2022/12/24 04:21:22;;;;;;;;;;;20.30;68.20;;;;;;1512771;77;1155;-73
2022/12/24 04:23:23;;;;;;;;;;;20.30;68.10;;;;;;1507611;77;679;-76
2022/12/24 04:25:25;;;;;;;;;;;20.30;68.10;;;;;;1500972;77;736;-74
2022/12/24 04:27:27;;;;;;;;;;;20.30;68.20;;;;;;1496515;77;1935;-75
2022/12/24 04:29:29;;;;;;;;;;;20.30;68.60;;;;;;1500879;77;637;-76
2022/12/24 04:31:31;;;;;;;;;;;20.30;68.80;;;;;;1500725;77;1151;-74
2022/12/24 04:33:33;;;;;;;;;;;20.30;68.70;;;;;;1504009;77;635;-75
2022/12/24 04:35:36;;;;;;;;;;;20.30;68.60;;;;;;1501620;77;601;-75
2022/12/24 04:37:38;;;;;;;;;;;20.30;68.50;;;;;;1500749;77;1132;-75
2022/12/24 04:39:40;;;;;;;;;;;20.60;68.50;;;;;;1506405;77;624;-74
2022/12/24 04:41:42;;;;;;;;;;;20.30;68.30;;;;;;1501061;77;1128;-75
2022/12/24 04:43:44;;;;;;;;;;;20.30;68.30;;;;;;1504796;77;666;-76
2022/12/24 04:45:46;;;;;;;;;;;20.30;68.20;;;;;;1503132;77;668;-78
2022/12/24 04:47:48;;;;;;;;;;;20.30;68.20;;;;;;1492927;77;1946;-75
2022/12/24 04:49:49;;;;;;;;;;;20.30;68.10;;;;;;1501152;77;742;-75
2022/12/24 04:51:51;;;;;;;;;;;20.30;68.00;;;;;;1507818;77;1103;-75
2022/12/24 04:53:53;;;;;;;;;;;20.30;68.00;;;;;;1505151;76;683;-73
2022/12/24 04:55:55;;;;;;;;;;;20.30;68.00;;;;;;1499889;77;673;-75
2022/12/24 04:57:57;;;;;;;;;;;20.30;67.90;;;;;;1505530;77;1478;-77
2022/12/24 04:59:59;;;;;;;;;;;20.30;67.90;;;;;;1504556;77;544;-75
2022/12/24 05:02:01;;;;;;;;;;;20.30;67.90;;;;;;1502237;77;1143;-77
2022/12/24 05:04:03;;;;;;;;;;;20.30;67.90;;;;;;1506705;77;692;-77
2022/12/24 05:06:05;;;;;;;;;;;20.30;67.90;;;;;;1520324;77;669;-75
2022/12/24 05:08:07;;;;;;;;;;;20.30;67.90;;;;;;1505517;77;1935;-77
2022/12/24 05:10:09;;;;;;;;;;;20.30;67.80;;;;;;1505696;77;687;-78
2022/12/24 05:12:11;;;;;;;;;;;20.30;68.00;;;;;;1505273;77;1141;-76
2022/12/24 05:14:13;;;;;;;;;;;20.30;68.00;;;;;;1504435;77;628;-76
2022/12/24 05:16:16;;;;;;;;;;;20.30;68.10;;;;;;1520232;77;722;-75
2022/12/24 05:18:18;;;;;;;;;;;20.30;68.00;;;;;;1515621;77;767;-76
2022/12/24 05:20:20;;;;;;;;;;;20.30;68.10;;;;;;1514491;77;719;-76
2022/12/24 05:27:02;;;;;;;;;;;20.30;68.10;;;;;;1505666;77;1667;-76
2022/12/24 05:29:03;;;;;;;;;;;20.30;68.10;;;;;;1509517;77;1941;-76
2022/12/24 05:31:05;;;;;;;;;;;20.30;68.20;;;;;;1501026;77;1150;-76
2022/12/24 05:33:07;;;;;;;;;;;20.30;68.20;;;;;;1504237;77;685;-76
2022/12/24 05:35:09;;;;;;;;;;;20.20;68.10;;;;;;1501678;77;680;-77
2022/12/24 05:37:11;;;;;;;;;;;20.20;68.00;;;;;;1508850;77;668;-77
2022/12/24 05:39:15;;;;;;;;;;;20.20;68.10;;;;;;1504899;77;684;-72
2022/12/24 05:41:17;;;;;;;;;;;20.30;68.20;;;;;;1509392;77;1328;-75
2022/12/24 05:43:18;;;;;;;;;;;20.30;68.20;;;;;;1512064;77;755;-73
2022/12/24 05:45:20;;;;;;;;;;;20.30;68.40;;;;;;1502620;77;684;-70
2022/12/24 05:47:22;;;;;;;;;;;20.20;68.30;;;;;;1498716;77;674;-71
2022/12/24 05:49:24;;;;;;;;;;;20.20;68.30;;;;;;1502852;77;1919;-75
2022/12/24 05:51:26;;;;;;;;;;;20.30;68.60;;;;;;1505935;77;1152;-73
2022/12/24 05:53:28;;;;;;;;;;;20.20;68.50;;;;;;1504821;77;553;-75
2022/12/24 05:55:30;;;;;;;;;;;20.30;69.00;;;;;;1504982;77;694;-75
2022/12/24 05:57:32;;;;;;;;;;;20.30;69.40;;;;;;1504985;77;664;-75
2022/12/24 05:59:33;;;;;;;;;;;20.30;69.10;;;;;;1511530;77;656;-76
2022/12/24 06:01:35;;;;;;;;;;;20.30;69.00;;;;;;1510073;77;1163;-77
2022/12/24 06:03:37;;;;;;;;;;;20.30;69.00;;;;;;1512152;77;797;-75
2022/12/24 06:05:40;;;;;;;;;;;20.30;68.90;;;;;;1510517;77;639;-76
2022/12/24 06:07:42;;;;;;;;;;;20.30;68.80;;;;;;1516372;77;648;-76
2022/12/24 06:09:43;;;;;;;;;;;20.40;68.80;;;;;;1506869;77;1939;-76
2022/12/24 06:11:45;;;;;;;;;;;20.40;68.60;;;;;;1504426;77;1137;-76
2022/12/24 06:13:47;;;;;;;;;;;20.30;68.40;;;;;;1511663;77;662;-77
2022/12/24 06:15:49;;;;;;;;;;;20.30;68.40;;;;;;1519836;77;672;-75
2022/12/24 06:17:51;;;;;;;;;;;20.40;68.80;;;;;;1506161;77;684;-77
2022/12/24 06:19:53;;;;;;;;;;;20.40;68.50;;;;;;1505241;77;668;-72
2022/12/24 06:21:55;;;;;;;;;;;20.30;68.70;;;;;;1506589;77;1393;-75
2022/12/24 06:23:57;;;;;;;;;;;20.40;68.80;;;;;;1506142;77;668;-74
2022/12/24 06:26:02;;;;;;;;;;;20.40;68.40;;;;;;1504646;77;667;-75
2022/12/24 06:28:03;;;;;;;;;;;20.40;68.50;;;;;;1504108;77;731;-79
2022/12/24 06:30:06;;;;;;;;;;;20.30;68.90;;;;;;1498637;77;1974;-77
2022/12/24 06:32:08;;;;;;;;;;;20.40;69.10;;;;;;1500176;77;1143;-79
2022/12/24 06:34:09;;;;;;;;;;;20.40;69.80;;;;;;1508491;78;662;-78
2022/12/24 06:36:13;;;;;;;;;;;20.40;70.30;;;;;;1504780;77;789;-74
2022/12/24 06:38:15;;;;;;;;;;;20.40;69.90;;;;;;1501359;77;628;-75
2022/12/24 06:40:17;;;;;;;;;;;20.40;69.30;;;;;;1498539;77;665;-74
2022/12/24 06:42:19;;;;;;;;;;;20.40;68.80;;;;;;1509938;77;1202;-76
2022/12/24 06:44:21;;;;;;;;;;;20.40;68.60;;;;;;1505537;77;664;-75
2022/12/24 06:46:23;;;;;;;;;;;20.40;68.40;;;;;;1509631;77;608;-75
2022/12/24 06:48:24;;;;;;;;;;;20.40;68.30;;;;;;1505831;77;1925;-75
2022/12/24 06:50:26;;;;;;;;;;;20.40;68.30;;;;;;1509662;77;1447;-74
2022/12/24 06:52:28;;;;;;;;;;;20.40;68.30;;;;;;1508629;77;1421;-74
2022/12/24 06:54:30;;;;;;;;;;;20.30;68.20;;;;;;1505255;77;640;-75
2022/12/24 06:56:32;;;;;;;;;;;20.40;68.20;;;;;;1511265;77;673;-74
2022/12/24 06:58:34;;;;;;;;;;;20.40;68.10;;;;;;1499265;77;689;-75
2022/12/24 07:00:36;;;;;;;;;;;20.40;68.70;;;;;;1501686;77;1131;-72
2022/12/24 07:02:41;;;;;;;;;;;20.40;69.10;;;;;;1500096;77;793;-74
2022/12/24 07:04:43;;;;;;;;;;;20.50;69.00;;;;;;1501086;77;614;-73
2022/12/24 07:06:45;;;;;;;;;;;20.50;68.90;;;;;;1501677;77;694;-77
2022/12/24 07:08:47;;;;;;;;;;;20.60;68.90;;;;;;1506310;77;1929;-74
2022/12/24 07:10:49;;;;;;;;;;;20.60;68.70;;;;;;1510820;77;1149;-73
2022/12/24 07:12:51;;;;;;;;;;;20.60;68.70;;;;;;1512473;77;699;-76
2022/12/24 07:14:53;;;;;;;;;;;20.70;68.40;;;;;;1511205;77;674;-79
2022/12/24 07:16:56;;;;;;;;;;;20.70;68.60;;;;;;1515979;77;664;-76
2022/12/24 07:18:58;;;;;;;;;;;20.80;68.30;;;;;;1505072;77;772;-74
2022/12/24 07:21:00;;;;;;;;;;;20.80;68.20;;;;;;1503491;77;1198;-74
2022/12/24 07:23:02;;;;;;;;;;;20.80;68.00;;;;;;1500387;77;631;-73
2022/12/24 07:25:03;;;;;;;;;;;20.90;68.00;;;;;;1505800;77;737;-75
2022/12/24 07:27:05;;;;;;;;;;;21.00;67.90;;;;;;1499302;77;743;-74
2022/12/24 07:29:07;;;;;;;;;;;21.00;67.70;;;;;;1511579;77;1930;-76
2022/12/24 07:31:09;;;;;;;;;;;20.90;67.40;;;;;;1508526;77;1153;-74
2022/12/24 07:33:11;;;;;;;;;;;20.80;67.20;;;;;;1506444;77;712;-74
2022/12/24 07:35:13;;;;;;;;;;;20.80;67.20;;;;;;1504367;78;694;-74
2022/12/24 07:37:15;;;;;;;;;;;20.70;67.30;;;;;;1502143;77;686;-74
2022/12/24 07:39:17;;;;;;;;;;;20.60;67.30;;;;;;1499936;77;711;-76
2022/12/24 07:41:18;;;;;;;;;;;20.60;67.40;;;;;;1498822;77;1136;-73
2022/12/24 07:43:20;;;;;;;;;;;20.60;67.40;;;;;;1511598;78;703;-76
2022/12/24 07:45:22;;;;;;;;;;;20.50;67.50;;;;;;1505117;77;633;-74
2022/12/24 07:47:24;;;;;;;;;;;20.50;67.50;;;;;;1510066;77;1458;-74
2022/12/24 07:49:26;;;;;;;;;;;20.50;67.60;;;;;;1516193;77;1948;-74
2022/12/24 07:51:28;;;;;;;;;;;20.50;67.60;;;;;;1498636;77;1111;-74
2022/12/24 07:53:30;;;;;;;;;;;20.50;67.60;;;;;;1507347;77;655;-75
2022/12/24 07:55:31;;;;;;;;;;;20.40;67.60;;;;;;1510378;77;692;-75
2022/12/24 07:57:33;;;;;;;;;;;20.50;67.70;;;;;;1503389;77;677;-73
2022/12/24 07:59:35;;;;;;;;;;;20.40;67.60;;;;;;1507519;77;699;-74
2022/12/24 08:01:37;;;;;;;;;;;20.50;67.70;;;;;;1506928;77;1112;-74
2022/12/24 08:03:39;;;;;;;;;;;20.40;67.70;;;;;;1508690;77;777;-74
2022/12/24 08:05:41;;;;;;;;;;;20.40;67.70;;;;;;1513088;77;706;-75
2022/12/24 08:07:43;;;;;;;;;;;20.40;67.80;;;;;;1510687;77;690;-74
2022/12/24 08:09:45;;;;;;;;;;;20.40;67.80;;;;;;1512019;77;1917;-74
2022/12/24 08:11:46;;;;;;;;;;;20.40;67.80;;;;;;1502415;77;1288;-75
2022/12/24 08:13:48;;;;;;;;;;;20.40;67.80;;;;;;1505231;77;735;-74
2022/12/24 08:15:50;;;;;;;;;;;20.40;67.80;;;;;;1518335;77;680;-74
2022/12/24 08:17:52;;;;;;;;;;;20.40;67.80;;;;;;1514535;77;652;-74
2022/12/24 08:19:54;;;;;;;;;;;20.40;67.80;;;;;;1510790;77;681;-74
2022/12/24 08:21:56;;;;;;;;;;;20.30;67.80;;;;;;1512887;77;1157;-75
2022/12/24 08:23:58;;;;;;;;;;;20.40;67.90;;;;;;1512597;77;660;-74
2022/12/24 08:26:00;;;;;;;;;;;20.30;67.90;;;;;;1512517;77;702;-75
2022/12/24 08:28:01;;;;;;;;;;;20.40;67.90;;;;;;1512626;77;688;-75
2022/12/24 08:30:04;;;;;;;;;;;20.40;67.90;;;;;;1504483;77;1958;-75
2022/12/24 08:32:05;;;;;;;;;;;20.40;67.90;;;;;;1504283;77;1138;-74
2022/12/24 08:34:07;;;;;;;;;;;20.30;68.00;;;;;;1511229;78;684;-75
2022/12/24 08:36:09;;;;;;;;;;;20.30;67.90;;;;;;1510915;77;735;-74
2022/12/24 08:38:11;;;;;;;;;;;20.40;67.90;;;;;;1512489;77;662;-75
2022/12/24 08:40:13;;;;;;;;;;;20.30;68.00;;;;;;1512999;77;633;-74
2022/12/24 08:42:15;;;;;;;;;;;20.30;68.00;;;;;;1510719;77;1127;-75
2022/12/24 08:44:17;;;;;;;;;;;20.40;68.00;;;;;;1513881;77;1571;-76
2022/12/24 08:46:19;;;;;;;;;;;20.30;68.00;;;;;;1512222;77;750;-73
2022/12/24 08:48:20;;;;;;;;;;;20.30;68.00;;;;;;1512908;77;645;-75
2022/12/24 08:50:22;;;;;;;;;;;20.40;68.10;;;;;;1511890;77;1933;-74
2022/12/24 08:52:24;;;;;;;;;;;20.40;68.10;;;;;;1508509;77;1111;-73
2022/12/24 08:54:26;;;;;;;;;;;20.30;68.10;;;;;;1511014;77;649;-75
2022/12/24 08:56:28;;;;;;;;;;;20.30;68.00;;;;;;1510567;77;695;-74
2022/12/24 08:58:30;;;;;;;;;;;20.30;68.10;;;;;;1510637;77;646;-73
2022/12/24 09:00:32;;;;;;;;;;;20.30;68.10;;;;;;1512863;77;712;-79
2022/12/24 09:02:34;;;;;;;;;;;20.30;68.10;;;;;;1510782;77;1116;-74
2022/12/24 09:04:38;;;;;;;;;;;20.30;68.10;;;;;;1513412;77;715;-75
2022/12/24 09:06:40;;;;;;;;;;;20.30;68.40;;;;;;1508941;77;704;-76
2022/12/24 09:08:42;;;;;;;;;;;20.30;68.30;;;;;;1511955;77;688;-75
2022/12/24 09:10:44;;;;;;;;;;;20.30;68.40;;;;;;1507720;77;1948;-74
2022/12/24 09:12:46;;;;;;;;;;;20.30;68.90;;;;;;1512162;77;767;-76
2022/12/24 09:14:50;;;;;;;;;;;20.30;68.90;;;;;;1509204;77;560;-75
2022/12/24 09:16:52;;;;;;;;;;;20.30;68.60;;;;;;1512263;77;719;-76
2022/12/24 09:18:54;;;;;;;;;;;20.40;68.60;;;;;;1512938;77;754;-74
2022/12/24 09:21:00;;;;;;;;;;;20.40;68.50;;;;;;1515359;77;1143;-74
2022/12/24 09:23:02;;;;;;;;;;;20.40;68.40;;;;;;1501333;77;1134;-75
2022/12/24 09:25:05;;;;;;;;;;;20.40;68.50;;;;;;1512984;77;727;-76
2022/12/24 09:27:07;;;;;;;;;;;20.30;68.70;;;;;;1512292;77;762;-75
2022/12/24 09:29:09;;;;;;;;;;;20.40;68.70;;;;;;1506735;77;680;-75
2022/12/24 09:31:11;;;;;;;;;;;20.30;68.70;;;;;;1508234;77;1942;-73
2022/12/24 09:33:13;;;;;;;;;;;20.40;68.50;;;;;;1505387;77;620;-77
2022/12/24 09:35:15;;;;;;;;;;;20.40;68.50;;;;;;1511193;77;709;-74
2022/12/24 09:37:17;;;;;;;;;;;20.40;68.40;;;;;;1513288;78;680;-74
2022/12/24 09:39:19;;;;;;;;;;;20.40;68.30;;;;;;1512202;77;1484;-74
2022/12/24 09:41:22;;;;;;;;;;;20.40;68.30;;;;;;1513699;77;1138;-74
2022/12/24 09:43:25;;;;;;;;;;;20.40;68.20;;;;;;1511184;77;610;-74
2022/12/24 09:45:30;;;;;;;;;;;20.40;68.20;;;;;;1505485;77;719;-75
2022/12/24 09:47:48;;;;;;;;;;;20.40;68.20;;;;;;1498561;77;646;-74
2022/12/24 09:49:51;;;;;;;;;;;20.30;68.10;;;;;;1499999;78;1893;-73
2022/12/24 09:51:54;;;;;;;;;;;20.40;68.20;;;;;;1504491;77;1153;-73
2022/12/24 09:54:07;;;;;;;;;;;20.40;68.20;;;;;;1512995;77;727;-73
2022/12/24 09:56:16;;;;;;;;;;;20.30;68.10;;;;;;1512791;77;625;-73
2022/12/24 09:58:20;;;;;;;;;;;20.30;68.10;;;;;;1509410;77;922;-73
2022/12/24 10:00:23;;;;;;;;;;;20.30;68.10;;;;;;1505725;77;1062;-74
2022/12/24 10:02:25;;;;;;;;;;;20.30;68.10;;;;;;1565186;72;2088;-78
2022/12/24 10:04:29;;;;;;;;;;;20.40;68.10;;;;;;1586353;73;740;-78
2022/12/24 10:06:32;;;;;;;;;;;20.30;67.90;;;;;;1586614;73;646;-76
2022/12/24 10:08:36;;;;;;;;;;;20.30;67.80;;;;;;1587229;73;1521;-79
2022/12/24 10:10:42;;;;;;;;;;;20.30;67.70;;;;;;1575378;74;1935;-78
2022/12/24 10:13:01;;;;;;;;;;;20.30;67.70;;;;;;1530459;75;1155;-77
2022/12/24 10:15:16;;;;;;;;;;;20.30;67.60;;;;;;1570453;75;693;-79
2022/12/24 10:17:20;;;;;;;;;;;20.30;68.70;;;;;;1573080;74;763;-79
2022/12/24 10:19:23;;;;;;;;;;;20.40;69.40;;;;;;1569114;75;1695;-79
2022/12/24 10:21:44;;;;;;;;;;;20.40;70.20;;;;;;1565229;75;1144;-78
2022/12/24 10:23:56;;;;;;;;;;;20.40;70.80;;;;;;1563758;75;773;-79
2022/12/24 10:25:59;;;;;;;;;;;20.50;71.40;;;;;;1561753;75;751;-76
2022/12/24 10:28:02;;;;;;;;;;;20.40;71.70;;;;;;1561896;74;1839;-77
2022/12/24 10:30:08;;;;;;;;;;;20.50;73.90;;;;;;1561545;75;1930;-79
2022/12/24 10:32:15;;;;;;;;;;;20.70;74.30;;;;;;1564467;75;1148;-79
2022/12/24 10:34:17;;;;;;;;;;;20.70;76.20;;;;;;1571698;75;1545;-79
2022/12/24 10:36:20;;;;;;;;;;;20.70;74.70;;;;;;1572711;75;1570;-78
2022/12/24 10:38:22;;;;;;;;;;;20.70;73.70;;;;;;1574335;75;634;-74
2022/12/24 10:40:28;;;;;;;;;;;20.70;72.50;;;;;;1568382;75;690;-74
2022/12/24 10:42:31;;;;;;;;;;;20.70;71.90;;;;;;1575819;74;1169;-79
2022/12/24 10:44:33;;;;;;;;;;;20.70;71.50;;;;;;1574450;75;2029;-78
2022/12/24 10:46:37;;;;;;;;;;;20.60;71.30;;;;;;1553177;76;656;-73
2022/12/24 10:48:43;;;;;;;;;;;20.60;72.50;;;;;;1574905;74;1229;-77
2022/12/24 10:50:53;;;;;;;;;;;20.60;72.00;;;;;;1574838;75;1938;-78
2022/12/24 10:52:55;;;;;;;;;;;20.60;72.00;;;;;;1544366;75;1165;-77
2022/12/24 10:55:07;;;;;;;;;;;20.60;72.00;;;;;;1574194;75;689;-77
2022/12/24 10:57:11;;;;;;;;;;;20.60;72.10;;;;;;1574061;75;685;-75
2022/12/24 10:59:33;;;;;;;;;;;20.60;72.20;;;;;;1573477;75;1105;-71
2022/12/24 11:01:46;;;;;;;;;;;20.70;72.90;;;;;;1569943;75;1578;-78
2022/12/24 11:04:01;;;;;;;;;;;20.70;71.60;;;;;;1572126;75;734;-78
2022/12/24 11:06:04;;;;;;;;;;;20.60;71.60;;;;;;1568246;75;743;-79
2022/12/24 11:08:08;;;;;;;;;;;20.60;71.90;;;;;;1576348;75;1545;-77
2022/12/24 11:10:11;;;;;;;;;;;20.70;72.10;;;;;;1569889;74;1933;-79
2022/12/24 11:12:18;;;;;;;;;;;20.70;71.80;;;;;;1575469;74;1217;-77
2022/12/24 11:14:20;;;;;;;;;;;20.60;71.80;;;;;;1577586;74;938;-76
2022/12/24 11:16:35;;;;;;;;;;;20.60;71.20;;;;;;1574664;75;705;-76
2022/12/24 11:18:37;;;;;;;;;;;20.60;70.80;;;;;;1573998;75;666;-74
2022/12/24 11:20:39;;;;;;;;;;;20.60;70.60;;;;;;1576401;75;622;-75
2022/12/24 11:22:41;;;;;;;;;;;20.60;70.50;;;;;;1577350;74;1116;-76
2022/12/24 11:24:43;;;;;;;;;;;20.60;70.40;;;;;;1576924;74;676;-76
2022/12/24 11:26:45;;;;;;;;;;;20.60;70.30;;;;;;1576657;75;817;-75
2022/12/24 11:28:48;;;;;;;;;;;20.50;70.20;;;;;;1574823;75;692;-76
2022/12/24 11:30:57;;;;;;;;;;;20.60;70.20;;;;;;1576353;75;1947;-77
2022/12/24 11:33:03;;;;;;;;;;;20.50;70.20;;;;;;1530699;77;1579;-77
2022/12/24 11:35:06;;;;;;;;;;;20.50;70.00;;;;;;1504674;77;713;-78
2022/12/24 11:37:12;;;;;;;;;;;20.60;70.10;;;;;;1511195;78;1082;-77
2022/12/24 11:39:16;;;;;;;;;;;20.50;70.00;;;;;;1540772;76;1457;-75
2022/12/24 11:41:18;;;;;;;;;;;20.60;70.00;;;;;;1495604;78;1128;-74
2022/12/24 11:43:20;;;;;;;;;;;20.50;69.90;;;;;;1522514;77;718;-75
2022/12/24 11:45:23;;;;;;;;;;;20.60;69.90;;;;;;1515366;77;573;-78
2022/12/24 11:47:38;;;;;;;;;;;20.60;69.90;;;;;;1520968;77;678;-76
2022/12/24 11:49:40;;;;;;;;;;;20.60;69.90;;;;;;1517155;78;733;-76
2022/12/24 11:51:46;;;;;;;;;;;20.50;69.80;;;;;;1516718;77;1932;-74
2022/12/24 11:54:02;;;;;;;;;;;20.50;69.80;;;;;;1514856;78;1446;-77
2022/12/24 11:56:06;;;;;;;;;;;20.60;69.80;;;;;;1519585;78;702;-76
2022/12/24 11:58:18;;;;;;;;;;;20.50;69.80;;;;;;1513254;78;1781;-75
2022/12/24 12:00:20;;;;;;;;;;;20.60;69.70;;;;;;1518277;78;707;-71
2022/12/24 12:02:26;;;;;;;;;;;20.60;69.70;;;;;;1522782;77;1132;-73
2022/12/24 12:04:28;;;;;;;;;;;20.50;69.70;;;;;;1518761;78;726;-75
2022/12/24 12:06:35;;;;;;;;;;;20.50;69.70;;;;;;1524979;76;693;-76
2022/12/24 12:08:37;;;;;;;;;;;20.60;69.70;;;;;;1518272;78;696;-75
2022/12/24 12:10:39;;;;;;;;;;;20.50;69.70;;;;;;1523637;78;1964;-76
2022/12/24 12:12:42;;;;;;;;;;;20.50;69.70;;;;;;1521117;77;1161;-76
2022/12/24 12:14:45;;;;;;;;;;;20.50;69.60;;;;;;1522668;78;681;-75
2022/12/24 12:17:02;;;;;;;;;;;20.50;69.60;;;;;;1521232;78;963;-75
2022/12/24 12:19:04;;;;;;;;;;;20.50;69.60;;;;;;1522327;78;629;-74
2022/12/24 12:21:08;;;;;;;;;;;20.50;69.70;;;;;;1521080;76;1137;-75
2022/12/24 12:23:27;;;;;;;;;;;20.50;69.70;;;;;;1516925;78;1190;-74
2022/12/24 12:25:34;;;;;;;;;;;20.50;69.60;;;;;;1522552;78;772;-75